createdAt,value
2022-09-28T00:00:58.868Z,16.85
2022-09-28T00:03:25.855Z,17.20
2022-09-28T00:05:52.443Z,17.05
2022-09-28T00:08:19.154Z,16.60
2022-09-28T00:10:54.772Z,18.02
2022-09-28T00:13:21.512Z,16.88
2022-09-28T00:15:48.119Z,17.77
2022-09-28T00:18:14.910Z,18.20
2022-09-28T00:20:41.611Z,16.95
2022-09-28T00:23:08.301Z,16.70
2022-09-28T00:25:34.947Z,17.13
2022-09-28T00:28:01.546Z,16.48
2022-09-28T00:30:28.166Z,16.83
2022-09-28T00:32:54.831Z,17.10
2022-09-28T00:35:21.519Z,16.90
2022-09-28T00:37:49.133Z,17.13
2022-09-28T00:40:15.990Z,17.65
2022-09-28T00:42:42.810Z,17.13
2022-09-28T00:45:09.987Z,18.17
2022-09-28T00:47:54.696Z,17.73
2022-09-28T00:50:21.465Z,18.98
2022-09-28T00:52:58.739Z,17.48
2022-09-28T00:55:49.584Z,17.38
2022-09-28T00:58:21.197Z,17.58
2022-09-28T01:00:49.377Z,18.60
2022-09-28T01:03:17.270Z,18.95
2022-09-28T01:05:46.644Z,19.73
2022-09-28T01:08:14.308Z,19.50
2022-09-28T01:10:43.410Z,19.23
2022-09-28T01:13:12.394Z,19.45
2022-09-28T01:16:03.079Z,19.33
2022-09-28T01:18:48.572Z,17.83
2022-09-28T01:21:20.070Z,20.85
2022-09-28T01:24:14.116Z,21.20
2022-09-28T01:26:56.565Z,19.27
2022-09-28T01:29:58.497Z,20.15
2022-09-28T01:32:43.749Z,20.35
2022-09-28T01:35:15.997Z,21.27
2022-09-28T01:37:51.855Z,22.95
2022-09-28T01:40:24.501Z,23.23
2022-09-28T01:42:58.200Z,23.30
2022-09-28T01:45:30.934Z,22.73
2022-09-28T01:48:02.790Z,24.67
2022-09-28T02:06:44.880Z,21.67
2022-09-28T02:09:18.681Z,21.77
2022-09-28T02:11:54.064Z,21.27
2022-09-28T02:14:22.464Z,22.73
2022-09-28T02:16:54.174Z,20.75
2022-09-28T02:19:28.353Z,22.23
2022-09-28T02:22:08.271Z,21.70
2022-09-28T02:24:39.639Z,21.73
2022-09-28T02:27:26.809Z,21.83
2022-09-28T02:29:53.514Z,22.13
2022-09-28T02:32:20.683Z,20.33
2022-09-28T02:34:47.410Z,23.17
2022-09-28T02:37:14.216Z,20.42
2022-09-28T02:39:40.894Z,16.40
2022-09-28T02:42:34.346Z,16.80
2022-09-28T02:45:19.370Z,14.88
2022-09-28T02:48:07.970Z,14.68
2022-09-28T02:51:05.973Z,13.77
2022-09-28T02:53:41.492Z,11.48
2022-09-28T02:56:22.648Z,13.05
2022-09-28T02:58:56.580Z,15.40
2022-09-28T03:01:44.856Z,16.95
2022-09-28T03:04:21.304Z,17.60
2022-09-28T03:11:25.056Z,16.98
2022-09-28T03:13:52.163Z,15.30
2022-09-28T03:16:21.587Z,16.55
2022-09-28T03:18:49.427Z,16.48
2022-09-28T03:21:16.988Z,16.45
2022-09-28T03:23:44.028Z,17.20
2022-09-28T03:26:16.542Z,18.35
2022-09-28T03:28:43.269Z,19.00
2022-09-28T03:31:15.625Z,19.63
2022-09-28T03:33:42.475Z,18.73
2022-09-28T03:36:09.634Z,16.80
2022-09-28T03:38:36.933Z,18.85
2022-09-28T03:41:05.117Z,18.52
2022-09-28T03:43:35.319Z,18.08
2022-09-28T03:46:03.062Z,17.10
2022-09-28T03:48:34.850Z,19.40
2022-09-28T03:51:05.249Z,19.60
2022-09-28T03:53:33.552Z,19.23
2022-09-28T03:56:13.208Z,20.13
2022-09-28T03:58:41.670Z,20.88
2022-09-28T04:01:16.382Z,20.75
2022-09-28T04:06:12.475Z,21.35
2022-09-28T04:08:39.441Z,23.20
2022-09-28T04:11:06.503Z,24.98
2022-09-28T04:13:33.776Z,26.77
2022-09-28T04:16:01.576Z,27.75
2022-09-28T04:18:33.270Z,28.02
2022-09-28T04:21:26.112Z,31.83
2022-09-28T04:24:02.461Z,29.65
2022-09-28T04:26:29.177Z,29.13
2022-09-28T04:29:15.533Z,28.70
2022-09-28T04:31:47.055Z,33.22
2022-09-28T04:34:17.385Z,29.30
2022-09-28T04:36:45.259Z,24.63
2022-09-28T04:39:14.794Z,25.05
2022-09-28T04:41:43.915Z,24.50
2022-09-28T04:44:10.660Z,25.20
2022-09-28T04:46:37.351Z,24.17
2022-09-28T04:51:56.955Z,25.48
2022-09-28T04:54:23.626Z,28.05
2022-09-28T04:56:51.092Z,27.42
2022-09-28T04:59:17.876Z,30.08
2022-09-28T05:01:44.729Z,31.85
2022-09-28T05:04:18.268Z,31.08
2022-09-28T05:07:04.196Z,29.67
2022-09-28T05:09:33.104Z,28.77
2022-09-28T05:12:03.720Z,28.55
2022-09-28T05:14:30.359Z,27.70
2022-09-28T05:16:57.675Z,32.70
2022-09-28T05:19:27.654Z,35.65
2022-09-28T05:22:07.128Z,34.35
2022-09-28T05:24:38.340Z,34.35
2022-09-28T05:27:07.002Z,34.28
2022-09-28T05:29:34.067Z,29.88
2022-09-28T05:35:00.955Z,29.67
2022-09-28T05:37:34.335Z,31.05
2022-09-28T05:40:01.349Z,35.35
2022-09-28T05:42:27.981Z,34.95
2022-09-28T05:44:54.615Z,32.38
2022-09-28T05:47:21.347Z,32.83
2022-09-28T05:49:48.022Z,34.20
2022-09-28T05:52:14.930Z,36.60
2022-09-28T05:54:41.724Z,35.60
2022-09-28T05:57:08.861Z,31.75
2022-09-28T05:59:36.037Z,30.70
2022-09-28T06:02:04.034Z,34.70
2022-09-28T06:04:31.524Z,35.85
2022-09-28T06:06:59.030Z,37.25
2022-09-28T06:09:26.201Z,36.72
2022-09-28T06:11:57.625Z,36.38
2022-09-28T06:14:48.567Z,35.42
2022-09-28T06:17:15.328Z,37.13
2022-09-28T06:19:47.930Z,36.55
2022-09-28T06:22:43.573Z,37.72
2022-09-28T06:25:10.270Z,35.80
2022-09-28T06:27:42.403Z,32.08
2022-09-28T06:30:09.567Z,34.78
2022-09-28T06:32:36.225Z,33.05
2022-09-28T06:35:02.925Z,31.17
2022-09-28T06:37:29.724Z,30.95
2022-09-28T06:39:56.808Z,28.88
2022-09-28T06:42:23.907Z,27.45
2022-09-28T06:48:05.646Z,29.65
2022-09-28T06:50:40.840Z,31.02
2022-09-28T06:53:28.356Z,30.55
2022-09-28T06:55:58.417Z,28.80
2022-09-28T06:58:28.048Z,29.20
2022-09-28T07:00:59.277Z,28.67
2022-09-28T07:03:27.752Z,27.17
2022-09-28T07:06:03.504Z,29.40
2022-09-28T07:08:40.631Z,31.00
2022-09-28T07:14:45.640Z,30.52
2022-09-28T07:17:14.475Z,31.52
2022-09-28T07:19:43.015Z,33.25
2022-09-28T07:22:18.451Z,33.05
2022-09-28T07:24:48.131Z,31.55
2022-09-28T07:27:41.103Z,32.80
2022-09-28T07:30:35.326Z,31.90
2022-09-28T07:33:23.091Z,31.63
2022-09-28T07:35:55.063Z,33.28
2022-09-28T07:38:26.305Z,30.60
2022-09-28T07:41:19.828Z,30.63
2022-09-28T07:43:49.736Z,33.72
2022-09-28T07:46:17.654Z,33.83
2022-09-28T07:48:56.302Z,35.58
2022-09-28T07:51:33.600Z,29.55
2022-09-28T07:54:17.771Z,27.45
2022-09-28T07:57:00.824Z,26.25
2022-09-28T07:59:40.120Z,28.20
2022-09-28T08:02:28.269Z,26.83
2022-09-28T08:04:54.989Z,23.45
2022-09-28T08:07:30.922Z,22.75
2022-09-28T08:10:04.530Z,22.92
2022-09-28T08:12:59.249Z,23.48
2022-09-28T08:15:39.557Z,24.67
2022-09-28T08:18:19.986Z,24.35
2022-09-28T08:21:05.869Z,24.40
2022-09-28T08:23:32.703Z,23.70
2022-09-28T08:26:00.038Z,24.83
2022-09-28T08:28:26.735Z,23.77
2022-09-28T08:30:59.935Z,25.58
2022-09-28T08:33:45.235Z,23.92
2022-09-28T08:39:03.067Z,26.38
2022-09-28T08:42:11.916Z,25.45
2022-09-28T08:44:57.780Z,26.20
2022-09-28T08:48:20.566Z,23.65
2022-09-28T08:51:17.865Z,18.88
2022-09-28T08:54:11.925Z,20.38
2022-09-28T08:57:10.934Z,17.75
2022-09-28T08:59:54.548Z,20.55
2022-09-28T09:02:33.457Z,19.95
2022-09-28T09:05:17.030Z,21.10
2022-09-28T09:08:17.911Z,21.40
2022-09-28T09:10:50.818Z,20.80
2022-09-28T09:13:45.632Z,22.65
2022-09-28T09:16:34.678Z,24.30
2022-09-28T09:19:35.471Z,28.13
2022-09-28T09:22:39.936Z,24.83
2022-09-28T09:25:19.183Z,24.10
2022-09-28T09:28:31.664Z,23.73
2022-09-28T09:31:24.013Z,24.38
2022-09-28T09:34:29.460Z,23.50
2022-09-28T09:37:30.582Z,21.50
2022-09-28T09:40:36.233Z,22.17
2022-09-28T09:44:11.557Z,24.02
2022-09-28T09:46:59.259Z,22.67
2022-09-28T09:49:46.526Z,22.88
2022-09-28T09:55:05.517Z,23.13
2022-09-28T09:57:45.584Z,22.67
2022-09-28T10:00:28.721Z,25.25
2022-09-28T10:03:19.314Z,26.58
2022-09-28T10:05:51.221Z,26.13
2022-09-28T10:08:21.493Z,26.23
2022-09-28T10:10:52.898Z,25.42
2022-09-28T10:13:21.132Z,25.90
2022-09-28T10:15:50.378Z,27.05
2022-09-28T10:18:32.577Z,26.45
2022-09-28T10:21:21.549Z,27.88
2022-09-28T10:23:59.243Z,27.30
2022-09-28T10:26:44.325Z,30.38
2022-09-28T10:29:17.667Z,28.58
2022-09-28T10:31:48.333Z,31.42
2022-09-28T10:34:30.708Z,29.45
2022-09-28T10:37:11.067Z,28.27
2022-09-28T10:39:58.924Z,27.10
2022-09-28T10:42:33.460Z,26.00
2022-09-28T10:45:23.349Z,25.38
2022-09-28T10:47:50.804Z,24.63
2022-09-28T10:50:24.963Z,24.83
2022-09-28T10:53:17.111Z,24.17
2022-09-28T10:56:04.017Z,24.90
2022-09-28T10:58:42.010Z,22.88
2022-09-28T11:01:22.845Z,23.90
2022-09-28T11:04:03.479Z,23.75
2022-09-28T11:06:36.047Z,24.77
2022-09-28T11:09:07.714Z,22.70
2022-09-28T11:11:41.648Z,21.58
2022-09-28T11:14:24.229Z,20.80
2022-09-28T11:17:29.517Z,19.17
2022-09-28T11:20:02.327Z,20.15
2022-09-28T11:22:44.199Z,19.23
2022-09-28T11:25:24.302Z,15.23
2022-09-28T11:27:50.888Z,14.60
2022-09-28T11:30:59.085Z,11.77
2022-09-28T11:34:03.155Z,12.50
2022-09-28T11:37:02.129Z,12.18
2022-09-28T11:40:00.013Z,14.02
2022-09-28T11:42:38.564Z,16.13
2022-09-28T11:45:42.857Z,14.48
2022-09-28T11:48:13.471Z,16.23
2022-09-28T11:50:53.569Z,16.48
2022-09-28T11:53:31.345Z,14.70
2022-09-28T11:56:38.143Z,17.13
2022-09-28T11:59:23.708Z,15.07
2022-09-28T12:02:10.148Z,16.33
2022-09-28T12:04:58.661Z,17.60
2022-09-28T12:07:55.154Z,19.15
2022-09-28T12:11:15.497Z,16.95
2022-09-28T12:14:24.165Z,17.58
2022-09-28T12:17:07.675Z,18.45
2022-09-28T12:19:42.349Z,19.75
2022-09-28T12:22:29.706Z,19.50
2022-09-28T12:24:57.966Z,21.10
2022-09-28T12:27:55.755Z,21.80
2022-09-28T12:30:26.930Z,19.48
2022-09-28T12:33:09.167Z,20.48
2022-09-28T12:35:38.947Z,21.48
2022-09-28T12:38:20.610Z,22.65
2022-09-28T12:41:08.799Z,22.27
2022-09-28T12:44:13.151Z,21.40
2022-09-28T12:46:58.010Z,23.40
2022-09-28T12:52:52.777Z,21.80
2022-09-28T12:55:30.879Z,22.10
2022-09-28T12:58:23.727Z,20.48
2022-09-28T13:01:01.433Z,20.33
2022-09-28T13:03:46.178Z,20.90
2022-09-28T13:06:26.184Z,21.17
2022-09-28T13:09:19.772Z,22.08
2022-09-28T13:11:58.616Z,22.55
2022-09-28T13:14:34.709Z,23.63
2022-09-28T13:17:29.588Z,25.30
2022-09-28T13:20:13.129Z,20.53
2022-09-28T13:23:09.271Z,22.38
2022-09-28T13:25:40.189Z,22.85
2022-09-28T13:28:07.122Z,24.42
2022-09-28T13:30:38.425Z,24.00
2022-09-28T13:33:07.157Z,24.63
2022-09-28T13:35:34.828Z,23.77
2022-09-28T13:38:17.334Z,23.75
2022-09-28T13:41:06.168Z,25.00
2022-09-28T13:43:54.621Z,24.75
2022-09-28T13:46:28.657Z,22.73
2022-09-28T13:49:17.189Z,22.70
2022-09-28T13:51:55.306Z,24.08
2022-09-28T13:54:47.355Z,25.55
2022-09-28T13:57:52.238Z,26.33
2022-09-28T14:00:46.488Z,27.75
2022-09-28T14:03:43.732Z,25.02
2022-09-28T14:06:48.115Z,27.30
2022-09-28T14:09:16.207Z,25.35
2022-09-28T14:11:44.186Z,24.98
2022-09-28T14:14:11.781Z,26.17
2022-09-28T14:16:40.589Z,25.30
2022-09-28T14:19:16.838Z,25.80
2022-09-28T14:22:20.449Z,26.38
2022-09-28T14:25:06.419Z,26.65
2022-09-28T14:27:40.040Z,28.98
2022-09-28T14:30:11.460Z,27.15
2022-09-28T14:32:40.929Z,25.15
2022-09-28T14:35:18.759Z,27.08
2022-09-28T14:38:07.964Z,30.75
2022-09-28T14:41:13.566Z,25.67
2022-09-28T14:43:45.953Z,26.55
2022-09-28T14:46:17.210Z,27.27
2022-09-28T14:48:43.895Z,25.73
2022-09-28T14:51:33.728Z,23.75
2022-09-28T14:54:12.213Z,24.63
2022-09-28T14:56:54.210Z,23.67
2022-09-28T14:59:27.100Z,22.65
2022-09-28T15:02:19.763Z,22.55
2022-09-28T15:04:54.415Z,22.52
2022-09-28T15:07:32.818Z,24.05
2022-09-28T15:10:02.001Z,24.70
2022-09-28T15:12:30.468Z,25.80
2022-09-28T15:15:19.002Z,22.92
2022-09-28T15:17:53.133Z,21.55
2022-09-28T15:20:26.440Z,19.37
2022-09-28T15:22:58.607Z,17.73
2022-09-28T15:25:31.650Z,19.55
2022-09-28T15:28:04.459Z,19.83
2022-09-28T15:30:34.799Z,24.13
2022-09-28T15:33:21.767Z,23.70
2022-09-28T15:36:01.914Z,22.27
2022-09-28T15:38:31.089Z,23.83
2022-09-28T15:40:58.029Z,22.08
2022-09-28T15:43:33.612Z,21.95
2022-09-28T15:46:13.186Z,22.42
2022-09-28T15:48:55.961Z,22.13
2022-09-28T15:51:27.201Z,21.83
2022-09-28T15:54:11.882Z,24.42
2022-09-28T15:56:59.788Z,25.58
2022-09-28T15:59:34.708Z,22.40
2022-09-28T16:02:11.774Z,26.48
2022-09-28T16:04:52.943Z,31.80
2022-09-28T16:07:24.612Z,25.98
2022-09-28T16:09:58.529Z,26.48
2022-09-28T16:12:31.192Z,24.83
2022-09-28T16:15:04.018Z,24.60
2022-09-28T16:17:33.644Z,23.75
2022-09-28T16:20:04.713Z,25.65
2022-09-28T16:22:34.814Z,29.35
2022-09-28T16:25:01.783Z,32.30
2022-09-28T16:27:41.834Z,33.85
2022-09-28T16:30:32.308Z,36.13
2022-09-28T16:33:05.566Z,34.03
2022-09-28T16:35:42.462Z,41.38
2022-09-28T16:38:11.998Z,45.20
2022-09-28T16:40:50.071Z,42.42
2022-09-28T16:43:28.785Z,37.42
2022-09-28T16:46:14.775Z,44.08
2022-09-28T16:48:49.867Z,111.15
2022-09-28T16:54:05.861Z,46.47
2022-09-28T16:56:36.601Z,39.75
2022-09-28T16:59:04.423Z,46.33
2022-09-28T17:01:31.551Z,45.03
2022-09-28T17:03:58.383Z,44.97
2022-09-28T17:06:26.482Z,43.22
2022-09-28T17:08:56.520Z,35.88
2022-09-28T17:11:24.824Z,33.65
2022-09-28T17:13:52.183Z,31.92
2022-09-28T17:16:32.643Z,32.47
2022-09-28T17:19:20.617Z,35.20
2022-09-28T17:21:47.689Z,38.53
2022-09-28T17:24:14.367Z,37.53
2022-09-28T17:26:43.750Z,39.75
2022-09-28T17:29:14.454Z,36.80
2022-09-28T17:31:42.619Z,36.10
2022-09-28T17:34:11.379Z,43.08
2022-09-28T17:36:38.407Z,38.92
2022-09-28T17:39:06.515Z,51.10
2022-09-28T17:41:34.182Z,44.55
2022-09-28T17:44:03.012Z,38.40
2022-09-28T17:46:36.030Z,38.10
2022-09-28T17:49:05.041Z,36.45
2022-09-28T17:51:37.552Z,34.97
2022-09-28T17:54:07.254Z,34.00
2022-09-28T17:56:35.190Z,34.63
2022-09-28T17:59:07.480Z,34.05
2022-09-28T18:01:37.808Z,34.00
2022-09-28T18:04:06.582Z,36.33
2022-09-28T18:06:33.710Z,38.97
2022-09-28T18:09:02.669Z,38.65
2022-09-28T18:11:29.820Z,47.00
2022-09-28T18:13:56.577Z,42.97
2022-09-28T18:16:23.668Z,47.58
2022-09-28T18:18:50.404Z,50.80
2022-09-28T18:21:17.143Z,63.88
2022-09-28T18:23:43.778Z,53.47
2022-09-28T18:26:12.322Z,70.18
2022-09-28T18:28:39.459Z,52.22
2022-09-28T18:31:11.284Z,46.28
2022-09-28T18:33:38.623Z,48.60
2022-09-28T18:36:06.939Z,49.03
2022-09-28T18:38:38.069Z,46.42
2022-09-28T18:41:08.900Z,43.33
2022-09-28T18:43:36.579Z,62.40
2022-09-28T18:46:09.185Z,60.30
2022-09-28T18:48:37.584Z,70.97
2022-09-28T18:51:09.221Z,61.13
2022-09-28T18:53:36.235Z,57.58
2022-09-28T18:56:08.162Z,47.38
2022-09-28T18:58:37.003Z,58.83
2022-09-28T19:01:29.607Z,38.53
2022-09-28T19:04:03.145Z,116.70
2022-09-28T19:06:31.653Z,82.63
2022-09-28T19:08:58.572Z,49.10
2022-09-28T19:11:25.841Z,38.33
2022-09-28T19:13:55.667Z,33.05
2022-09-28T19:16:25.147Z,32.35
2022-09-28T19:18:53.388Z,29.63
2022-09-28T19:21:20.869Z,30.83
2022-09-28T19:23:49.864Z,30.55
2022-09-28T19:26:23.120Z,25.17
2022-09-28T19:28:50.191Z,25.55
2022-09-28T19:31:17.280Z,26.83
2022-09-28T19:33:44.911Z,26.10
2022-09-28T19:36:14.159Z,25.10
2022-09-28T19:38:41.140Z,23.90
2022-09-28T19:41:09.768Z,26.23
2022-09-28T19:43:36.633Z,23.55
2022-09-28T19:46:05.516Z,24.75
2022-09-28T19:48:33.829Z,33.45
2022-09-28T19:51:04.099Z,28.92
2022-09-28T19:53:33.457Z,30.30
2022-09-28T19:56:03.628Z,28.85
2022-09-28T19:58:33.672Z,27.42
2022-09-28T20:01:00.296Z,28.63
2022-09-28T20:03:26.978Z,27.52
2022-09-28T20:05:59.854Z,27.52
2022-09-28T20:08:27.039Z,31.90
2022-09-28T20:10:54.837Z,29.60
2022-09-28T20:13:22.359Z,27.02
2022-09-28T20:15:49.181Z,36.17
2022-09-28T20:18:16.270Z,28.50
2022-09-28T20:20:43.278Z,28.25
2022-09-28T20:23:10.075Z,30.33
2022-09-28T20:25:37.651Z,40.25
2022-09-28T20:28:05.109Z,44.60
2022-09-28T20:30:32.872Z,43.70
2022-09-28T20:32:59.921Z,39.30
2022-09-28T20:35:32.998Z,42.28
2022-09-28T20:38:07.675Z,42.63
2022-09-28T20:40:36.441Z,42.83
2022-09-28T20:43:06.226Z,37.05
2022-09-28T20:45:37.011Z,33.92
2022-09-28T20:48:06.163Z,33.28
2022-09-28T20:50:33.787Z,33.83
2022-09-28T20:53:01.460Z,35.92
2022-09-28T20:55:28.510Z,39.22
2022-09-28T20:57:55.152Z,32.50
2022-09-28T21:00:21.830Z,31.90
2022-09-28T21:02:51.923Z,27.95
2022-09-28T21:05:18.606Z,28.98
2022-09-28T21:07:45.246Z,29.95
2022-09-28T21:10:11.842Z,29.60
2022-09-28T21:12:38.852Z,24.58
2022-09-28T21:15:06.303Z,26.75
2022-09-28T21:17:33.502Z,26.42
2022-09-28T21:20:00.104Z,30.10
2022-09-28T21:22:29.368Z,30.65
2022-09-28T21:24:55.978Z,31.20
2022-09-28T21:27:22.584Z,32.45
2022-09-28T21:29:49.204Z,33.42
2022-09-28T21:32:15.835Z,33.70
2022-09-28T21:34:42.518Z,31.77
2022-09-28T21:37:09.180Z,29.85
2022-09-28T21:39:36.226Z,31.17
2022-09-28T21:42:02.927Z,30.25
2022-09-28T21:44:29.532Z,30.48
2022-09-28T21:46:56.203Z,30.75
2022-09-28T21:49:22.827Z,30.50
2022-09-28T21:51:49.479Z,29.67
2022-09-28T21:54:16.175Z,30.05
2022-09-28T21:56:42.849Z,31.15
2022-09-28T21:59:09.455Z,31.83
2022-09-28T22:01:36.730Z,30.85
2022-09-28T22:04:03.339Z,33.08
2022-09-28T22:06:30.085Z,31.10
2022-09-28T22:08:57.650Z,32.58
2022-09-28T22:11:27.488Z,33.30
2022-09-28T22:13:56.943Z,34.35
2022-09-28T22:16:26.733Z,32.58
2022-09-28T22:18:53.640Z,31.67
2022-09-28T22:21:23.274Z,31.02
2022-09-28T22:23:50.119Z,31.05
2022-09-28T22:26:20.018Z,34.65
2022-09-28T22:28:49.357Z,34.25
2022-09-28T22:31:18.508Z,36.50
2022-09-28T22:33:45.260Z,34.65
2022-09-28T22:36:11.943Z,34.72
2022-09-28T22:38:38.992Z,38.80
2022-09-28T22:41:05.683Z,33.13
2022-09-28T22:43:32.619Z,31.30
2022-09-28T22:46:07.746Z,35.75
2022-09-28T22:48:34.766Z,36.15
2022-09-28T22:51:02.370Z,26.40
2022-09-28T22:53:29.621Z,34.92
2022-09-28T22:55:57.164Z,30.52
2022-09-28T22:58:24.072Z,34.85
2022-09-28T23:00:50.786Z,34.35
2022-09-28T23:03:17.758Z,32.22
2022-09-28T23:05:55.803Z,40.75
2022-09-28T23:08:23.250Z,39.22
2022-09-28T23:10:50.936Z,35.63
2022-09-28T23:13:18.504Z,39.67
2022-09-28T23:16:01.487Z,38.50
2022-09-28T23:18:31.398Z,32.60
2022-09-28T23:21:03.211Z,36.85
2022-09-28T23:23:31.742Z,37.17
2022-09-28T23:25:59.421Z,37.70
2022-09-28T23:28:27.038Z,40.28
2022-09-28T23:30:54.098Z,40.85
2022-09-28T23:33:21.984Z,43.72
2022-09-28T23:35:49.376Z,39.45
2022-09-28T23:38:17.985Z,36.78
2022-09-28T23:40:45.951Z,33.58
2022-09-28T23:43:13.184Z,35.97
2022-09-28T23:45:42.551Z,38.67
2022-09-28T23:48:09.234Z,37.03
2022-09-28T23:50:35.881Z,39.60
2022-09-28T23:53:02.578Z,37.63
2022-09-28T23:55:29.195Z,38.78
2022-09-28T23:57:56.622Z,38.15
